Time;durP1;ratioP1;P1;durP2;ratioP2;P2;SDS_P1;SDS_P2;PMS_P1;PMS_P2;Temp;Humidity;BMP_temperature;BMP_pressure;BME280_temperature;BME280_humidity;BME280_pressure;Samples;Min_cycle;Max_cycle;Signal;HPM_P1;HPM_P2
2024/04/12 00:01:17;;;;;;;16.58;14.87;;;;;;;;;;4449628;32;20029;-64
2024/04/12 00:03:43;;;;;;;17.05;13.00;;;;;;;;;;4453864;32;20025;-64
2024/04/12 00:06:15;;;;;;;14.95;13.52;;;;;;;;;;4452391;32;20033;-64
2024/04/12 00:08:46;;;;;;;24.87;22.75;;;;;;;;;;4438450;32;20077;-64
2024/04/12 00:11:12;;;;;;;17.08;15.25;;;;;;;;;;4451982;32;20060;-65
2024/04/12 00:13:40;;;;;;;12.05;10.85;;;;;;;;;;4452050;32;20018;-63
2024/04/12 00:16:09;;;;;;;11.45;10.23;;;;;;;;;;4451744;32;20081;-64
2024/04/12 00:18:36;;;;;;;13.48;10.93;;;;;;;;;;4437586;32;20020;-65
2024/04/12 00:21:01;;;;;;;12.60;11.15;;;;;;;;;;4453858;32;20082;-64
2024/04/12 00:23:35;;;;;;;17.33;15.63;;;;;;;;;;4453050;32;20030;-65
2024/04/12 00:26:01;;;;;;;11.32;10.13;;;;;;;;;;4453985;32;20029;-63
2024/04/12 00:28:30;;;;;;;14.30;12.77;;;;;;;;;;4453793;32;20443;-64
2024/04/12 00:30:59;;;;;;;14.25;12.65;;;;;;;;;;4439247;32;20349;-64
2024/04/12 00:33:25;;;;;;;13.35;10.23;;;;;;;;;;4453180;32;20034;-64
2024/04/12 00:35:54;;;;;;;13.07;10.05;;;;;;;;;;4452483;32;20318;-63
2024/04/12 00:38:23;;;;;;;13.23;9.60;;;;;;;;;;4451458;32;20045;-63
2024/04/12 00:40:52;;;;;;;16.52;10.68;;;;;;;;;;4437483;32;20410;-63
2024/04/12 00:43:18;;;;;;;24.65;22.65;;;;;;;;;;4453168;32;20021;-64
2024/04/12 00:45:45;;;;;;;12.10;9.70;;;;;;;;;;4453482;32;20133;-63
2024/04/12 00:48:10;;;;;;;15.68;10.57;;;;;;;;;;4451536;32;20045;-64
2024/04/12 00:50:40;;;;;;;14.40;10.68;;;;;;;;;;4452373;32;20062;-64
2024/04/12 00:53:09;;;;;;;12.85;10.65;;;;;;;;;;4441530;32;20032;-63
2024/04/12 00:55:35;;;;;;;30.52;27.85;;;;;;;;;;4437066;32;20091;-63
2024/04/12 00:58:00;;;;;;;15.50;10.70;;;;;;;;;;4436817;32;20344;-63
2024/04/12 01:00:35;;;;;;;14.73;11.65;;;;;;;;;;4436323;32;20026;-63
2024/04/12 01:03:05;;;;;;;16.37;10.88;;;;;;;;;;4436146;32;20077;-64
2024/04/12 01:05:32;;;;;;;14.70;11.55;;;;;;;;;;4437856;32;20056;-64
2024/04/12 01:08:00;;;;;;;15.77;11.98;;;;;;;;;;4447619;32;20044;-62
2024/04/12 01:10:25;;;;;;;18.37;12.25;;;;;;;;;;4422397;32;20469;-64
2024/04/12 01:12:58;;;;;;;15.77;11.35;;;;;;;;;;4437432;32;20026;-64
2024/04/12 01:15:23;;;;;;;17.02;11.40;;;;;;;;;;4436757;32;20386;-65
2024/04/12 01:17:49;;;;;;;16.83;11.18;;;;;;;;;;4435549;32;20108;-64
2024/04/12 01:20:16;;;;;;;15.30;11.75;;;;;;;;;;4437273;32;20026;-65
2024/04/12 01:22:44;;;;;;;15.15;11.93;;;;;;;;;;4435716;32;20060;-64
2024/04/12 01:25:10;;;;;;;14.23;11.90;;;;;;;;;;4450459;32;20041;-64
2024/04/12 01:27:37;;;;;;;18.60;12.50;;;;;;;;;;4452966;32;20017;-64
2024/04/12 01:30:03;;;;;;;13.80;10.38;;;;;;;;;;4451212;32;20037;-64
2024/04/12 01:32:28;;;;;;;18.70;16.00;;;;;;;;;;4450986;32;20132;-64
2024/04/12 01:34:55;;;;;;;18.87;12.37;;;;;;;;;;4451453;32;20104;-64
2024/04/12 01:37:20;;;;;;;20.17;18.10;;;;;;;;;;4437452;32;20092;-64
2024/04/12 01:39:49;;;;;;;15.68;12.15;;;;;;;;;;4437335;32;20460;-64
2024/04/12 01:42:16;;;;;;;15.82;12.32;;;;;;;;;;4437279;32;20068;-65
2024/04/12 01:45:13;;;;;;;18.73;13.18;;;;;;;;;;4437023;32;20449;-64
2024/04/12 01:47:34;;;;;;;14.18;11.88;;;;;;;;;;4435042;32;20069;-65
2024/04/12 01:50:01;;;;;;;15.15;11.45;;;;;;;;;;4436507;32;20079;-64
2024/04/12 01:52:26;;;;;;;14.18;12.10;;;;;;;;;;4434898;32;20071;-63
2024/04/12 01:55:05;;;;;;;18.85;11.68;;;;;;;;;;4436968;32;20026;-63
2024/04/12 01:57:30;;;;;;;14.85;11.02;;;;;;;;;;4436192;32;20033;-63
2024/04/12 01:59:56;;;;;;;13.10;10.88;;;;;;;;;;4436494;32;20052;-64
2024/04/12 02:02:21;;;;;;;11.27;9.88;;;;;;;;;;4436633;32;20403;-64
2024/04/12 02:04:51;;;;;;;14.00;11.23;;;;;;;;;;4436541;32;20030;-63
2024/04/12 02:07:16;;;;;;;14.43;12.85;;;;;;;;;;4434698;32;20101;-63
2024/04/12 02:09:41;;;;;;;13.45;10.55;;;;;;;;;;4434055;32;20022;-64
2024/04/12 02:12:07;;;;;;;12.40;10.38;;;;;;;;;;4435981;32;20042;-64
2024/04/12 02:14:32;;;;;;;11.90;10.43;;;;;;;;;;4445273;32;20053;-64
2024/04/12 02:16:58;;;;;;;13.95;10.93;;;;;;;;;;4436236;32;20092;-64
2024/04/12 02:19:25;;;;;;;13.27;10.90;;;;;;;;;;4451565;32;20077;-63
2024/04/12 02:21:50;;;;;;;13.60;10.70;;;;;;;;;;4436639;32;20048;-63
2024/04/12 02:24:18;;;;;;;15.52;11.05;;;;;;;;;;4450245;32;20029;-64
2024/04/12 02:26:46;;;;;;;12.25;10.55;;;;;;;;;;4451092;32;20112;-64
2024/04/12 02:29:11;;;;;;;16.08;11.82;;;;;;;;;;4437526;32;20025;-64
2024/04/12 02:31:36;;;;;;;14.13;11.55;;;;;;;;;;4450132;32;20033;-63
2024/04/12 02:34:02;;;;;;;12.65;10.60;;;;;;;;;;4437304;32;20025;-64
2024/04/12 02:36:30;;;;;;;15.38;12.85;;;;;;;;;;4450211;32;20425;-64
2024/04/12 02:38:56;;;;;;;13.55;10.45;;;;;;;;;;4450105;32;20038;-63
2024/04/12 02:41:21;;;;;;;14.82;12.10;;;;;;;;;;4436525;32;20025;-64
2024/04/12 02:43:58;;;;;;;14.18;11.20;;;;;;;;;;4443017;32;20426;-65
2024/04/12 02:46:23;;;;;;;17.52;12.18;;;;;;;;;;4436889;32;20064;-64
2024/04/12 02:48:49;;;;;;;18.67;12.13;;;;;;;;;;4434671;32;20034;-63
2024/04/12 02:51:17;;;;;;;15.43;12.15;;;;;;;;;;4434350;32;20052;-64
2024/04/12 02:53:43;;;;;;;19.08;11.82;;;;;;;;;;4435524;32;20021;-64
2024/04/12 02:56:09;;;;;;;15.32;11.85;;;;;;;;;;4434449;32;20082;-64
2024/04/12 02:58:40;;;;;;;15.77;12.90;;;;;;;;;;4441670;32;20347;-63
2024/04/12 03:01:10;;;;;;;16.23;13.45;;;;;;;;;;4450233;32;20048;-64
2024/04/12 03:03:36;;;;;;;16.87;12.20;;;;;;;;;;4450226;32;20036;-63
2024/04/12 03:06:01;;;;;;;15.15;11.15;;;;;;;;;;4449248;32;20386;-64
2024/04/12 03:08:32;;;;;;;14.38;12.15;;;;;;;;;;4449893;32;20137;-64
2024/04/12 03:11:10;;;;;;;15.15;10.63;;;;;;;;;;4450990;32;20021;-65
2024/04/12 03:13:36;;;;;;;14.90;11.05;;;;;;;;;;4441118;32;20044;-64
2024/04/12 03:16:03;;;;;;;13.30;10.82;;;;;;;;;;4434147;32;20029;-65
2024/04/12 03:18:29;;;;;;;16.52;12.52;;;;;;;;;;4435113;32;20064;-63
2024/04/12 03:20:55;;;;;;;13.85;11.23;;;;;;;;;;4435189;32;20595;-65
2024/04/12 03:23:20;;;;;;;12.60;10.35;;;;;;;;;;4435853;32;20048;-63
2024/04/12 03:25:45;;;;;;;13.52;10.18;;;;;;;;;;4434615;32;20088;-62
2024/04/12 03:28:10;;;;;;;14.60;10.33;;;;;;;;;;4435719;32;20033;-65
2024/04/12 03:30:40;;;;;;;13.20;11.43;;;;;;;;;;4435629;32;20129;-64
2024/04/12 03:33:05;;;;;;;12.68;10.10;;;;;;;;;;4433357;32;20049;-64
2024/04/12 03:35:33;;;;;;;12.82;10.85;;;;;;;;;;4433547;32;20479;-64
2024/04/12 03:40:57;;;;;;;;;;;;;;;;;;4427357;32;20050;-63
2024/04/12 03:43:22;;;;;;;14.48;11.23;;;;;;;;;;4449183;32;20025;-64
2024/04/12 03:45:54;;;;;;;13.73;10.40;;;;;;;;;;4452547;32;20092;-64
2024/04/12 03:48:19;;;;;;;18.10;11.95;;;;;;;;;;4452899;32;20105;-64
2024/04/12 03:50:48;;;;;;;14.70;10.50;;;;;;;;;;4439294;32;20029;-63
2024/04/12 03:53:16;;;;;;;14.40;10.57;;;;;;;;;;4453216;32;20474;-64
2024/04/12 03:55:45;;;;;;;18.42;10.65;;;;;;;;;;4454407;32;20041;-63
2024/04/12 03:58:16;;;;;;;15.77;11.70;;;;;;;;;;4441226;32;20033;-64
2024/04/12 04:00:42;;;;;;;15.90;10.98;;;;;;;;;;4431725;32;20380;-65
2024/04/12 04:03:10;;;;;;;12.48;10.90;;;;;;;;;;4438011;32;20109;-64
2024/04/12 04:05:35;;;;;;;14.15;11.27;;;;;;;;;;4437819;32;20056;-64
2024/04/12 04:08:00;;;;;;;15.33;12.60;;;;;;;;;;4437780;32;20029;-64
2024/04/12 04:10:25;;;;;;;23.65;21.00;;;;;;;;;;4422814;32;20508;-65
2024/04/12 04:12:51;;;;;;;14.90;12.25;;;;;;;;;;4423537;32;20026;-63
2024/04/12 04:15:16;;;;;;;18.37;11.88;;;;;;;;;;4445121;32;20025;-65
2024/04/12 04:17:47;;;;;;;16.80;15.02;;;;;;;;;;4449909;32;20026;-64
2024/04/12 04:20:13;;;;;;;15.93;13.48;;;;;;;;;;4437145;32;20048;-64
2024/04/12 04:25:07;;;;;;;16.00;12.75;;;;;;;;;;4438286;32;20022;-64
2024/04/12 04:27:32;;;;;;;17.40;13.40;;;;;;;;;;4435467;32;20081;-63
2024/04/12 04:29:58;;;;;;;15.68;12.95;;;;;;;;;;4435797;32;20030;-63
2024/04/12 04:32:24;;;;;;;15.88;13.38;;;;;;;;;;4438717;32;20091;-64
2024/04/12 04:35:05;;;;;;;21.37;14.68;;;;;;;;;;4438784;32;20021;-64
2024/04/12 04:37:31;;;;;;;16.35;12.65;;;;;;;;;;4453759;32;20078;-65
2024/04/12 04:39:56;;;;;;;20.12;14.05;;;;;;;;;;4452515;32;20025;-64
2024/04/12 04:42:23;;;;;;;18.80;16.73;;;;;;;;;;4451701;32;20466;-64
2024/04/12 04:44:48;;;;;;;20.42;14.98;;;;;;;;;;4451630;32;20042;-63
2024/04/12 04:47:14;;;;;;;22.02;14.85;;;;;;;;;;4449415;32;20523;-63
2024/04/12 04:49:39;;;;;;;20.60;18.27;;;;;;;;;;4437610;32;20029;-64
2024/04/12 04:52:08;;;;;;;19.50;13.55;;;;;;;;;;4437639;32;20025;-65
2024/04/12 04:54:36;;;;;;;14.43;12.40;;;;;;;;;;4436626;32;20022;-63
2024/04/12 04:57:01;;;;;;;16.17;13.57;;;;;;;;;;4436378;32;20360;-64
2024/04/12 04:59:32;;;;;;;14.73;12.35;;;;;;;;;;4437331;32;20086;-64
2024/04/12 05:01:57;;;;;;;23.95;13.77;;;;;;;;;;4439794;32;20026;-64
2024/04/12 05:04:22;;;;;;;17.98;15.38;;;;;;;;;;4452322;32;20386;-63
2024/04/12 05:06:50;;;;;;;20.98;15.88;;;;;;;;;;4451756;32;20342;-64
2024/04/12 05:09:18;;;;;;;22.50;18.37;;;;;;;;;;4453024;32;20051;-64
2024/04/12 05:11:44;;;;;;;20.00;17.50;;;;;;;;;;4451186;32;20098;-65
2024/04/12 05:14:41;;;;;;;18.90;16.02;;;;;;;;;;4451507;32;20041;-64
2024/04/12 05:17:07;;;;;;;20.55;16.27;;;;;;;;;;4451010;32;20152;-63
2024/04/12 05:19:33;;;;;;;20.77;17.67;;;;;;;;;;4442808;32;20406;-64
2024/04/12 05:22:06;;;;;;;23.25;18.20;;;;;;;;;;4449225;32;20068;-64
2024/04/12 05:24:33;;;;;;;23.33;19.92;;;;;;;;;;4452778;32;20026;-64
2024/04/12 05:27:01;;;;;;;25.85;19.10;;;;;;;;;;4451060;32;20398;-64
2024/04/12 05:29:30;;;;;;;24.60;18.40;;;;;;;;;;4452046;32;20033;-63
2024/04/12 05:31:58;;;;;;;22.60;17.80;;;;;;;;;;4448887;32;20037;-63
2024/04/12 05:34:26;;;;;;;22.73;19.23;;;;;;;;;;4437334;32;20101;-64
2024/04/12 05:36:55;;;;;;;27.10;18.95;;;;;;;;;;4437222;32;20041;-63
2024/04/12 05:39:20;;;;;;;26.40;23.60;;;;;;;;;;4435677;32;20469;-64
2024/04/12 05:41:45;;;;;;;26.20;18.37;;;;;;;;;;4436954;32;20067;-63
2024/04/12 05:44:14;;;;;;;28.10;20.37;;;;;;;;;;4437295;32;20044;-63
2024/04/12 05:46:40;;;;;;;30.92;26.52;;;;;;;;;;4435830;32;20096;-63
2024/04/12 05:49:09;;;;;;;28.38;22.13;;;;;;;;;;4444903;32;20037;-64
2024/04/12 05:51:35;;;;;;;28.73;20.30;;;;;;;;;;4436695;32;20077;-64
2024/04/12 05:54:10;;;;;;;33.33;24.45;;;;;;;;;;4435874;32;20057;-65
2024/04/12 05:56:39;;;;;;;26.52;22.13;;;;;;;;;;4436852;32;20021;-64
2024/04/12 05:59:04;;;;;;;26.85;21.25;;;;;;;;;;4421822;32;20110;-64
2024/04/12 06:01:33;;;;;;;26.20;17.25;;;;;;;;;;4436075;32;20026;-63
2024/04/12 06:03:59;;;;;;;27.85;21.27;;;;;;;;;;4441394;32;20104;-64
2024/04/12 06:06:30;;;;;;;21.77;15.75;;;;;;;;;;4449599;32;20029;-65
2024/04/12 06:08:58;;;;;;;18.80;14.75;;;;;;;;;;4437189;32;20021;-65
2024/04/12 06:11:25;;;;;;;23.60;18.95;;;;;;;;;;4450459;32;20417;-64
2024/04/12 06:13:53;;;;;;;25.10;14.77;;;;;;;;;;4435531;32;20084;-64
2024/04/12 06:16:19;;;;;;;19.02;12.73;;;;;;;;;;4450992;32;20381;-64
2024/04/12 06:18:45;;;;;;;22.58;14.70;;;;;;;;;;4449871;32;20084;-63
2024/04/12 06:21:10;;;;;;;22.58;14.90;;;;;;;;;;4436275;32;20030;-64
2024/04/12 06:23:37;;;;;;;26.65;14.50;;;;;;;;;;4434963;32;20133;-64
2024/04/12 06:26:03;;;;;;;23.48;13.80;;;;;;;;;;4434879;32;20429;-63
2024/04/12 06:28:30;;;;;;;23.58;21.12;;;;;;;;;;4436753;32;20029;-64
2024/04/12 06:30:57;;;;;;;17.70;14.57;;;;;;;;;;4436322;32;20094;-64
2024/04/12 06:33:22;;;;;;;22.62;15.38;;;;;;;;;;4436457;32;20353;-64
2024/04/12 06:35:52;;;;;;;20.20;14.65;;;;;;;;;;4448861;32;20026;-64
2024/04/12 06:38:21;;;;;;;23.27;14.00;;;;;;;;;;4434557;32;20058;-64
2024/04/12 06:40:55;;;;;;;36.42;33.47;;;;;;;;;;4444961;32;20503;-64
2024/04/12 06:43:20;;;;;;;24.80;20.58;;;;;;;;;;4436156;32;20060;-66
2024/04/12 06:45:56;;;;;;;23.27;17.80;;;;;;;;;;4433681;32;20355;-65
2024/04/12 06:48:26;;;;;;;19.03;11.57;;;;;;;;;;4434992;32;20037;-64
2024/04/12 06:50:54;;;;;;;20.55;13.00;;;;;;;;;;4436362;32;20163;-63
2024/04/12 06:53:21;;;;;;;18.98;10.93;;;;;;;;;;4434627;32;20026;-63
2024/04/12 06:55:47;;;;;;;16.17;10.95;;;;;;;;;;4435236;32;20029;-64
2024/04/12 06:58:12;;;;;;;23.23;11.40;;;;;;;;;;4434615;32;20052;-64
2024/04/12 07:00:38;;;;;;;21.83;18.15;;;;;;;;;;4436281;32;20040;-64
2024/04/12 07:03:07;;;;;;;20.98;11.32;;;;;;;;;;4436152;32;20522;-64
2024/04/12 07:05:32;;;;;;;15.98;11.30;;;;;;;;;;4436320;32;20421;-64
2024/04/12 07:07:58;;;;;;;17.70;10.98;;;;;;;;;;4436368;32;20017;-65
2024/04/12 07:10:27;;;;;;;15.13;10.23;;;;;;;;;;4435642;32;20053;-64
2024/04/12 07:12:55;;;;;;;16.37;12.20;;;;;;;;;;4436227;32;20354;-64
2024/04/12 07:15:21;;;;;;;15.75;8.32;;;;;;;;;;4438866;32;20381;-63
2024/04/12 07:17:47;;;;;;;12.95;8.45;;;;;;;;;;4437706;32;20017;-64
2024/04/12 07:20:13;;;;;;;16.75;10.48;;;;;;;;;;4438647;32;20038;-64
2024/04/12 07:22:39;;;;;;;18.17;9.98;;;;;;;;;;4437975;32;20026;-63
2024/04/12 07:25:07;;;;;;;15.88;8.40;;;;;;;;;;4437967;32;20096;-65
2024/04/12 07:27:35;;;;;;;14.98;7.37;;;;;;;;;;4436034;32;20037;-65
2024/04/12 07:30:01;;;;;;;15.38;7.43;;;;;;;;;;4437775;32;20430;-64
2024/04/12 07:32:35;;;;;;;20.00;8.35;;;;;;;;;;4436213;32;20060;-64
2024/04/12 07:35:00;;;;;;;14.07;7.47;;;;;;;;;;4436583;32;20021;-65
2024/04/12 07:37:28;;;;;;;15.70;7.80;;;;;;;;;;4438049;32;20362;-66
2024/04/12 07:40:15;;;;;;;15.82;7.32;;;;;;;;;;4437084;32;20037;-64
2024/04/12 07:42:45;;;;;;;11.25;7.57;;;;;;;;;;4438116;32;20022;-63
2024/04/12 07:45:15;;;;;;;13.93;8.15;;;;;;;;;;4438901;32;20110;-65
2024/04/12 07:47:52;;;;;;;13.52;7.80;;;;;;;;;;4437962;32;20094;-64
2024/04/12 07:50:17;;;;;;;19.52;8.65;;;;;;;;;;4437164;32;20067;-64
2024/04/12 07:52:44;;;;;;;12.65;7.28;;;;;;;;;;4439309;32;20390;-65
2024/04/12 07:55:09;;;;;;;14.87;6.93;;;;;;;;;;4454157;32;20096;-65
2024/04/12 07:57:36;;;;;;;14.98;8.23;;;;;;;;;;4452393;32;20441;-64
2024/04/12 08:00:09;;;;;;;15.98;7.37;;;;;;;;;;4454260;32;20071;-65
2024/04/12 08:02:35;;;;;;;13.18;6.22;;;;;;;;;;4453806;32;20079;-65
2024/04/12 08:05:14;;;;;;;11.93;5.97;;;;;;;;;;4454035;32;20100;-64
2024/04/12 08:07:41;;;;;;;9.63;6.43;;;;;;;;;;4453901;32;20369;-64
2024/04/12 08:10:28;;;;;;;12.05;6.90;;;;;;;;;;4453485;32;20424;-64
2024/04/12 08:12:57;;;;;;;8.20;5.82;;;;;;;;;;4437254;32;20366;-64
2024/04/12 08:15:22;;;;;;;9.75;6.97;;;;;;;;;;4423166;32;20399;-64
2024/04/12 08:17:49;;;;;;;14.20;5.87;;;;;;;;;;4437650;32;20094;-65
2024/04/12 08:20:14;;;;;;;15.85;5.95;;;;;;;;;;4436765;32;20106;-64
2024/04/12 08:22:42;;;;;;;13.10;10.40;;;;;;;;;;4437205;32;20161;-63
2024/04/12 08:25:08;;;;;;;9.65;5.50;;;;;;;;;;4438499;32;20068;-63
2024/04/12 08:27:35;;;;;;;12.35;5.40;;;;;;;;;;4453220;32;20061;-63
2024/04/12 08:30:00;;;;;;;9.40;5.28;;;;;;;;;;4453308;32;20412;-64
2024/04/12 08:32:31;;;;;;;12.85;6.07;;;;;;;;;;4452113;32;20076;-64
2024/04/12 08:34:58;;;;;;;9.27;5.28;;;;;;;;;;4437375;32;20408;-64
2024/04/12 08:37:30;;;;;;;11.43;5.00;;;;;;;;;;4452321;32;20047;-64
2024/04/12 08:39:55;;;;;;;13.75;6.20;;;;;;;;;;4439679;32;20068;-64
2024/04/12 08:42:32;;;;;;;5.78;4.55;;;;;;;;;;4437341;32;20415;-65
2024/04/12 08:45:37;;;;;;;12.15;5.50;;;;;;;;;;4438183;32;20018;-64
2024/04/12 08:47:54;;;;;;;8.38;5.03;;;;;;;;;;4434950;32;20179;-63
2024/04/12 08:50:24;;;;;;;10.30;5.22;;;;;;;;;;4438494;32;20064;-63
2024/04/12 08:52:53;;;;;;;8.20;4.60;;;;;;;;;;4437726;32;20041;-65
2024/04/12 08:55:23;;;;;;;9.27;4.30;;;;;;;;;;4439875;32;20148;-63
2024/04/12 08:57:56;;;;;;;7.78;4.55;;;;;;;;;;4452274;32;20059;-65
2024/04/12 09:00:28;;;;;;;13.05;4.72;;;;;;;;;;4452018;32;20478;-65
2024/04/12 09:03:02;;;;;;;7.60;3.90;;;;;;;;;;4436882;32;20048;-64
2024/04/12 09:05:27;;;;;;;10.30;4.75;;;;;;;;;;4453437;32;20094;-64
2024/04/12 09:07:58;;;;;;;11.35;4.93;;;;;;;;;;4453401;32;20025;-64
2024/04/12 09:10:25;;;;;;;9.13;3.90;;;;;;;;;;4453102;32;20081;-65
2024/04/12 09:12:50;;;;;;;10.93;4.93;;;;;;;;;;4437562;32;20021;-65
2024/04/12 09:15:27;;;;;;;11.38;5.00;;;;;;;;;;4453511;32;20081;-64
2024/04/12 09:18:00;;;;;;;12.45;4.82;;;;;;;;;;4437070;32;20109;-64
2024/04/12 09:20:35;;;;;;;10.32;4.75;;;;;;;;;;4435948;32;20365;-64
2024/04/12 09:23:19;;;;;;;8.27;3.67;;;;;;;;;;4435736;32;20018;-64
2024/04/12 09:25:54;;;;;;;8.32;4.35;;;;;;;;;;4435860;32;20057;-64
2024/04/12 09:28:19;;;;;;;9.05;8.15;;;;;;;;;;4436052;32;20415;-65
2024/04/12 09:33:31;;;;;;;10.95;3.20;;;;;;;;;;4451524;32;20048;-65
2024/04/12 09:36:03;;;;;;;9.52;6.50;;;;;;;;;;4438256;32;20088;-64
2024/04/12 09:38:28;;;;;;;7.30;3.55;;;;;;;;;;4450635;32;20040;-65
2024/04/12 09:41:03;;;;;;;11.50;4.40;;;;;;;;;;4436601;32;20079;-63
2024/04/12 09:43:31;;;;;;;6.47;3.20;;;;;;;;;;4437732;32;20047;-65
2024/04/12 09:46:08;;;;;;;6.07;3.42;;;;;;;;;;4447269;32;20418;-65
2024/04/12 10:38:31;;;;;;;5.62;2.03;;;;;;;;;;4452043;32;20043;-63
2024/04/12 10:40:58;;;;;;;5.70;2.03;;;;;;;;;;4437649;32;20346;-64
2024/04/12 10:43:25;;;;;;;7.60;3.75;;;;;;;;;;4451706;32;20336;-64
2024/04/12 10:45:50;;;;;;;4.55;1.70;;;;;;;;;;4450030;32;20082;-64
2024/04/12 10:48:18;;;;;;;4.20;2.83;;;;;;;;;;4451761;32;20396;-65
2024/04/12 10:50:46;;;;;;;6.32;1.98;;;;;;;;;;4449586;32;20093;-64
2024/04/12 10:53:12;;;;;;;4.45;2.05;;;;;;;;;;4435039;32;20048;-64
2024/04/12 10:55:37;;;;;;;5.45;3.25;;;;;;;;;;4435138;32;20068;-64
2024/04/12 10:58:05;;;;;;;9.00;1.83;;;;;;;;;;4435498;32;20026;-65
2024/04/12 11:00:31;;;;;;;4.40;2.30;;;;;;;;;;4436041;32;20361;-64
2024/04/12 11:02:59;;;;;;;6.72;2.20;;;;;;;;;;4434059;32;20045;-65
2024/04/12 11:05:38;;;;;;;5.47;1.90;;;;;;;;;;4441651;32;20060;-63
2024/04/12 11:08:06;;;;;;;5.22;2.20;;;;;;;;;;4449735;32;20410;-65
2024/04/12 11:10:54;;;;;;;4.95;2.08;;;;;;;;;;4450636;32;20025;-65
2024/04/12 11:13:28;;;;;;;5.50;2.00;;;;;;;;;;4438304;32;20021;-64
2024/04/12 11:32:14;;;;;;;5.12;2.30;;;;;;;;;;4433155;32;20130;-64
2024/04/12 11:34:44;;;;;;;6.28;2.17;;;;;;;;;;4435376;32;20037;-66
2024/04/12 11:37:10;;;;;;;5.90;2.20;;;;;;;;;;4433678;32;20017;-65
2024/04/12 11:39:36;;;;;;;2.47;2.00;;;;;;;;;;4449549;32;20431;-65
2024/04/12 11:42:03;;;;;;;7.70;2.62;;;;;;;;;;4448027;32;20026;-65
2024/04/12 11:44:29;;;;;;;6.22;3.17;;;;;;;;;;4449864;32;20025;-65
2024/04/12 11:46:56;;;;;;;6.43;1.98;;;;;;;;;;4434557;32;20068;-64
2024/04/12 11:49:28;;;;;;;5.60;2.03;;;;;;;;;;4448318;32;20381;-66
2024/04/12 11:51:57;;;;;;;4.37;1.45;;;;;;;;;;4445544;32;20029;-65
2024/04/12 11:54:24;;;;;;;8.30;3.55;;;;;;;;;;4432279;32;20071;-65
2024/04/12 11:56:49;;;;;;;4.03;1.80;;;;;;;;;;4436183;32;20079;-65
2024/04/12 11:59:18;;;;;;;5.12;2.12;;;;;;;;;;4442060;32;20437;-65
2024/04/12 12:01:43;;;;;;;2.92;1.98;;;;;;;;;;4439959;32;20050;-64
2024/04/12 12:04:09;;;;;;;5.57;1.92;;;;;;;;;;4437650;32;20078;-65
2024/04/12 12:06:34;;;;;;;7.30;3.05;;;;;;;;;;4448884;32;20017;-64
2024/04/12 12:09:11;;;;;;;4.93;2.83;;;;;;;;;;4436822;32;20053;-64
2024/04/12 12:11:37;;;;;;;5.47;2.37;;;;;;;;;;4437306;32;20535;-65
2024/04/12 12:14:04;;;;;;;2.95;2.00;;;;;;;;;;4437126;32;20056;-64
2024/04/12 12:16:33;;;;;;;3.75;2.20;;;;;;;;;;4436545;32;20029;-64
2024/04/12 12:18:58;;;;;;;4.32;1.55;;;;;;;;;;4437604;32;20079;-65
2024/04/12 12:21:23;;;;;;;5.30;1.62;;;;;;;;;;4425094;32;20356;-64
2024/04/12 12:23:48;;;;;;;5.67;3.93;;;;;;;;;;4451096;32;20135;-63
2024/04/12 12:26:14;;;;;;;6.60;3.25;;;;;;;;;;4452325;32;20226;-64
2024/04/12 12:28:40;;;;;;;5.37;1.87;;;;;;;;;;4453262;32;20029;-66
2024/04/12 12:31:06;;;;;;;5.30;1.92;;;;;;;;;;4443898;32;20090;-64
2024/04/12 12:33:37;;;;;;;6.37;2.00;;;;;;;;;;4436119;32;20460;-66
2024/04/12 12:36:05;;;;;;;5.43;3.30;;;;;;;;;;4440522;32;20091;-65
2024/04/12 12:38:31;;;;;;;5.50;2.40;;;;;;;;;;4451166;32;20071;-64
2024/04/12 12:40:57;;;;;;;5.90;5.40;;;;;;;;;;4451604;32;20033;-65
2024/04/12 12:43:22;;;;;;;4.18;1.90;;;;;;;;;;4452026;32;20060;-65
2024/04/12 12:45:48;;;;;;;4.45;2.50;;;;;;;;;;4452054;32;20021;-65
2024/04/12 12:48:19;;;;;;;4.40;1.85;;;;;;;;;;4451901;32;20029;-65
2024/04/12 12:50:45;;;;;;;5.50;1.70;;;;;;;;;;4437245;32;20112;-65
2024/04/12 12:53:12;;;;;;;3.72;2.35;;;;;;;;;;4447094;32;20112;-65
2024/04/12 12:55:39;;;;;;;6.68;2.10;;;;;;;;;;4436853;32;20077;-64
2024/04/12 12:58:11;;;;;;;5.90;2.00;;;;;;;;;;4437031;32;20064;-64
2024/04/12 13:00:39;;;;;;;3.37;1.90;;;;;;;;;;4436542;32;20052;-65
2024/04/12 13:03:11;;;;;;;4.15;2.67;;;;;;;;;;4437359;32;20409;-66
2024/04/12 13:05:37;;;;;;;4.97;1.80;;;;;;;;;;4437184;32;20060;-66
2024/04/12 13:08:03;;;;;;;5.50;2.95;;;;;;;;;;4442856;32;20025;-64
2024/04/12 13:10:33;;;;;;;7.53;2.20;;;;;;;;;;4451564;32;20030;-65
2024/04/12 13:13:03;;;;;;;3.53;2.10;;;;;;;;;;4452474;32;20063;-65
2024/04/12 13:15:29;;;;;;;3.95;1.90;;;;;;;;;;4452385;32;20369;-65
2024/04/12 13:17:54;;;;;;;6.47;1.98;;;;;;;;;;4452230;32;20079;-65
2024/04/12 13:20:21;;;;;;;9.05;4.50;;;;;;;;;;4452670;32;20033;-65
2024/04/12 13:22:47;;;;;;;6.20;4.70;;;;;;;;;;4430335;32;20084;-65
2024/04/12 13:25:14;;;;;;;6.40;2.20;;;;;;;;;;4437296;32;20041;-65
2024/04/12 13:27:48;;;;;;;2.62;2.08;;;;;;;;;;4437542;32;20113;-65
2024/04/12 13:30:14;;;;;;;5.57;3.33;;;;;;;;;;4437558;32;20045;-65
2024/04/12 13:32:43;;;;;;;4.90;2.28;;;;;;;;;;4436284;32;20025;-64
2024/04/12 13:35:09;;;;;;;5.10;1.50;;;;;;;;;;4436288;32;20398;-66
2024/04/12 13:37:34;;;;;;;5.12;2.92;;;;;;;;;;4441873;32;20109;-64
2024/04/12 13:39:59;;;;;;;5.03;1.60;;;;;;;;;;4450792;32;20422;-65
2024/04/12 13:42:25;;;;;;;5.93;3.58;;;;;;;;;;4435961;32;20029;-65
2024/04/12 13:53:04;;;;;;;7.65;6.93;;;;;;;;;;4452240;32;20074;-65
2024/04/12 13:55:34;;;;;;;7.05;5.15;;;;;;;;;;4452393;32;20029;-65
2024/04/12 13:58:01;;;;;;;3.72;1.50;;;;;;;;;;4438250;32;20358;-65
2024/04/12 14:00:30;;;;;;;4.95;3.45;;;;;;;;;;4435213;32;20030;-65
2024/04/12 14:02:55;;;;;;;2.78;2.37;;;;;;;;;;4436328;32;20057;-63
2024/04/12 14:05:20;;;;;;;2.65;1.62;;;;;;;;;;4435732;32;20097;-66
2024/04/12 14:07:49;;;;;;;3.62;1.70;;;;;;;;;;4434415;32;20485;-65
2024/04/12 14:10:14;;;;;;;4.18;1.87;;;;;;;;;;4435076;32;20179;-64
2024/04/12 14:12:40;;;;;;;4.03;1.83;;;;;;;;;;4436841;32;20026;-65
2024/04/12 14:15:05;;;;;;;5.40;1.70;;;;;;;;;;4434933;32;20022;-65
2024/04/12 14:17:30;;;;;;;5.87;4.78;;;;;;;;;;4435206;32;20022;-65
2024/04/12 14:19:56;;;;;;;5.72;2.50;;;;;;;;;;4435719;32;20354;-64
2024/04/12 14:22:21;;;;;;;3.92;2.40;;;;;;;;;;4434228;32;20102;-65
2024/04/12 14:25:01;;;;;;;7.05;5.55;;;;;;;;;;4441238;32;20030;-65
2024/04/12 14:27:26;;;;;;;7.05;1.90;;;;;;;;;;4444536;32;20018;-64
2024/04/12 14:29:52;;;;;;;4.03;2.47;;;;;;;;;;4435311;32;20034;-65
2024/04/12 14:32:17;;;;;;;3.53;2.60;;;;;;;;;;4442173;32;20128;-64
2024/04/12 14:34:46;;;;;;;6.90;1.70;;;;;;;;;;4442010;32;20094;-64
2024/04/12 14:37:15;;;;;;;3.47;1.67;;;;;;;;;;4434292;32;20022;-64
2024/04/12 14:39:42;;;;;;;4.62;2.25;;;;;;;;;;4434600;32;20414;-65
2024/04/12 14:42:08;;;;;;;2.75;2.00;;;;;;;;;;4434018;32;20041;-65
2024/04/12 14:44:36;;;;;;;5.28;2.47;;;;;;;;;;4433554;32;20454;-64
2024/04/12 14:47:01;;;;;;;3.92;2.00;;;;;;;;;;4434294;32;20055;-65
2024/04/12 14:49:26;;;;;;;5.68;4.00;;;;;;;;;;4440526;32;20370;-65
2024/04/12 14:51:54;;;;;;;2.63;1.47;;;;;;;;;;4439976;32;20052;-65
2024/04/12 14:54:23;;;;;;;6.82;2.10;;;;;;;;;;4436113;32;20162;-65
2024/04/12 14:56:48;;;;;;;5.25;1.65;;;;;;;;;;4436003;32;20025;-65
2024/04/12 14:59:14;;;;;;;3.60;1.85;;;;;;;;;;4434950;32;20041;-63
2024/04/12 15:01:39;;;;;;;8.18;2.25;;;;;;;;;;4435924;32;20041;-66
2024/04/12 15:53:15;;;;;;;5.45;2.62;;;;;;;;;;4438635;32;20413;-64
2024/04/12 15:55:32;;;;;;;6.10;3.15;;;;;;;;;;4437036;32;20026;-64
2024/04/12 16:11:37;;;;;;;4.03;2.53;;;;;;;;;;4452839;32;20090;-65
2024/04/12 16:14:03;;;;;;;3.33;1.67;;;;;;;;;;4453085;32;20022;-65
2024/04/12 16:16:29;;;;;;;8.70;2.60;;;;;;;;;;4452011;32;20041;-65
2024/04/12 16:18:54;;;;;;;5.28;3.45;;;;;;;;;;4443771;32;20141;-65
2024/04/12 16:21:20;;;;;;;6.50;3.20;;;;;;;;;;4435155;32;20145;-64
2024/04/12 16:23:45;;;;;;;2.42;1.58;;;;;;;;;;4438435;32;20074;-64
2024/04/12 16:26:11;;;;;;;10.60;1.90;;;;;;;;;;4440603;32;20504;-65
2024/04/12 16:28:36;;;;;;;4.62;1.95;;;;;;;;;;4453947;32;20407;-65
2024/04/12 16:31:01;;;;;;;4.87;2.20;;;;;;;;;;4452293;32;20051;-64
2024/04/12 16:33:27;;;;;;;2.90;1.87;;;;;;;;;;4453900;32;20093;-65
2024/04/12 16:35:52;;;;;;;4.20;2.87;;;;;;;;;;4452562;32;20365;-64
2024/04/12 16:38:18;;;;;;;3.12;1.62;;;;;;;;;;4437748;32;20062;-65
2024/04/12 16:40:45;;;;;;;3.80;1.98;;;;;;;;;;4437595;32;20052;-67
2024/04/12 16:43:12;;;;;;;6.55;1.92;;;;;;;;;;4437518;32;20079;-67
2024/04/12 16:45:38;;;;;;;5.53;2.30;;;;;;;;;;4436465;32;20073;-67
2024/04/12 16:48:03;;;;;;;4.25;2.35;;;;;;;;;;4436355;32;20041;-67
2024/04/12 16:50:29;;;;;;;3.22;1.62;;;;;;;;;;4438171;32;20079;-65
2024/04/12 16:52:55;;;;;;;5.05;1.85;;;;;;;;;;4438633;32;20091;-67
2024/04/12 16:55:21;;;;;;;4.05;2.53;;;;;;;;;;4422439;32;20088;-65
2024/04/12 16:57:46;;;;;;;3.55;1.75;;;;;;;;;;4437004;32;20419;-65